Time;durP1;ratioP1;P1;durP2;ratioP2;P2;SDS_P1;SDS_P2;PMS_P1;PMS_P2;Temp;Humidity;BMP_temperature;BMP_pressure;BME280_temperature;BME280_humidity;BME280_pressure;Samples;Min_cycle;Max_cycle;Signal;HPM_P1;HPM_P2
2021/05/14 00:00:24;;;;;;;127.70;33.87;;;;;;;9.66;100.00;99676.03;5036196;28;20196;-75
2021/05/14 00:02:49;;;;;;;65.10;32.07;;;;;;;9.74;100.00;99674.66;5019346;28;20182;-75
2021/05/14 00:05:15;;;;;;;97.00;34.27;;;;;;;9.74;100.00;99667.53;5037163;28;20172;-75
2021/05/14 00:07:40;;;;;;;237.17;36.70;;;;;;;9.69;100.00;99667.84;5037385;28;20540;-75
2021/05/14 00:10:07;;;;;;;112.30;32.53;;;;;;;9.69;100.00;99665.19;5036702;28;20695;-76
2021/05/14 00:12:32;;;;;;;93.63;33.87;;;;;;;9.73;100.00;99673.81;5035751;28;20218;-75
2021/05/14 00:14:57;;;;;;;74.87;32.00;;;;;;;9.79;100.00;99672.53;5037445;28;20232;-75
2021/05/14 00:17:22;;;;;;;60.37;30.77;;;;;;;9.71;100.00;99671.25;5037008;28;20180;-75
2021/05/14 00:19:48;;;;;;;65.37;30.07;;;;;;;9.80;100.00;99682.25;5037026;28;20206;-76
2021/05/14 00:22:13;;;;;;;67.93;30.57;;;;;;;9.75;100.00;99681.69;5037302;28;20185;-75
2021/05/14 00:24:38;;;;;;;107.20;31.57;;;;;;;9.75;100.00;99676.38;5036773;28;20168;-75
2021/05/14 00:27:04;;;;;;;86.53;32.50;;;;;;;9.68;100.00;99684.78;5035438;28;20640;-74
2021/05/14 00:29:29;;;;;;;145.50;35.63;;;;;;;9.67;100.00;99688.41;5034888;28;20238;-75
2021/05/14 00:31:54;;;;;;;81.67;30.83;;;;;;;9.67;100.00;99683.06;5035519;28;20219;-75
2021/05/14 00:34:20;;;;;;;99.03;33.43;;;;;;;9.70;100.00;99688.19;5036397;28;20187;-74
2021/05/14 00:36:45;;;;;;;97.00;32.50;;;;;;;9.65;100.00;99689.44;5036102;28;20636;-74
2021/05/14 00:39:11;;;;;;;116.70;31.33;;;;;;;9.65;100.00;99687.63;5035555;28;20188;-75
2021/05/14 00:41:36;;;;;;;102.27;32.23;;;;;;;9.63;100.00;99696.69;5035181;28;20257;-75
2021/05/14 00:44:27;;;;;;;57.43;28.50;;;;;;;9.63;100.00;99689.53;5034808;28;20180;-76
2021/05/14 00:46:53;;;;;;;57.43;27.77;;;;;;;9.59;100.00;99677.38;5019017;28;20564;-74
2021/05/14 00:49:18;;;;;;;81.40;30.37;;;;;;;9.60;100.00;99683.56;5034771;28;20172;-75
2021/05/14 00:51:44;;;;;;;53.33;27.83;;;;;;;9.58;100.00;99681.00;5035847;28;20195;-75
2021/05/14 00:54:09;;;;;;;121.93;29.40;;;;;;;9.64;100.00;99682.41;5034808;28;20176;-75
2021/05/14 00:56:35;;;;;;;83.67;29.17;;;;;;;9.62;100.00;99684.31;5035442;28;20301;-75
2021/05/14 00:59:00;;;;;;;53.57;27.40;;;;;;;9.64;100.00;99683.25;5017179;28;20180;-75
2021/05/14 01:01:25;;;;;;;63.53;26.67;;;;;;;9.62;100.00;99681.66;5034990;28;20203;-74
2021/05/14 01:03:50;;;;;;;77.70;27.20;;;;;;;9.54;100.00;99676.00;5034701;28;20636;-74
2021/05/14 01:06:16;;;;;;;116.93;29.53;;;;;;;9.54;100.00;99674.19;5034843;28;20181;-75
2021/05/14 01:08:41;;;;;;;67.13;27.33;;;;;;;9.55;100.00;99678.53;5017212;28;20238;-75
2021/05/14 01:11:06;;;;;;;99.00;27.83;;;;;;;9.58;100.00;99670.34;5035270;28;20560;-75
2021/05/14 01:13:32;;;;;;;55.60;27.10;;;;;;;9.57;100.00;99671.31;5034993;28;20651;-76
2021/05/14 01:15:58;;;;;;;83.60;25.87;;;;;;;9.63;100.00;99667.38;5035510;28;20196;-75
2021/05/14 01:18:23;;;;;;;64.03;23.83;;;;;;;9.67;100.00;99664.44;5017003;28;20214;-75
2021/05/14 01:20:48;;;;;;;67.37;22.40;;;;;;;9.66;100.00;99665.38;5034628;28;20222;-75
2021/05/14 01:23:14;;;;;;;65.93;23.17;;;;;;;9.59;100.00;99671.19;5020234;28;20180;-74
2021/05/14 01:25:39;;;;;;;49.27;22.23;;;;;;;9.59;100.00;99669.38;5039485;28;20537;-74
2021/05/14 01:28:04;;;;;;;61.67;22.83;;;;;;;9.52;100.00;99673.44;5039174;28;20176;-74
2021/05/14 01:30:30;;;;;;;93.80;22.43;;;;;;;9.50;100.00;99662.03;5042190;28;20714;-73
2021/05/14 01:32:55;;;;;;;56.17;23.17;;;;;;;9.53;100.00;99661.81;5038776;28;20183;-75
2021/05/14 01:35:20;;;;;;;43.97;22.03;;;;;;;9.52;100.00;99667.25;5033856;28;20200;-75
2021/05/14 01:37:46;;;;;;;89.30;25.03;;;;;;;9.51;100.00;99661.06;5034748;28;20745;-74
2021/05/14 01:40:11;;;;;;;77.93;23.97;;;;;;;9.50;100.00;99666.50;5035448;28;20277;-74
2021/05/14 01:42:45;;;;;;;51.13;22.83;;;;;;;9.56;100.00;99660.75;5034538;28;20179;-74
2021/05/14 01:45:11;;;;;;;44.10;21.80;;;;;;;9.49;100.00;99656.81;5033423;28;20187;-74
2021/05/14 01:47:37;;;;;;;38.00;21.10;;;;;;;9.48;100.00;99660.41;5034574;28;20645;-74
2021/05/14 01:50:03;;;;;;;47.27;21.80;;;;;;;9.52;100.00;99652.13;5032732;28;20200;-74
2021/05/14 01:52:28;;;;;;;49.30;21.93;;;;;;;9.46;100.00;99655.19;5034542;28;20176;-75
2021/05/14 01:54:54;;;;;;;48.30;21.77;;;;;;;9.52;100.00;99656.59;5033215;28;20694;-74
2021/05/14 01:57:19;;;;;;;55.93;22.50;;;;;;;9.50;100.00;99648.72;5032777;28;20673;-74
2021/05/14 01:59:44;;;;;;;32.43;20.37;;;;;;;9.52;100.00;99649.47;5035518;28;20196;-74
2021/05/14 02:02:10;;;;;;;49.80;19.93;;;;;;;9.54;100.00;99644.88;5034461;28;20690;-74
2021/05/14 02:04:35;;;;;;;55.03;21.93;;;;;;;9.46;100.00;99647.22;5033051;28;20177;-74
2021/05/14 02:07:00;;;;;;;48.60;21.83;;;;;;;9.41;100.00;99644.00;5033587;28;20172;-74
2021/05/14 02:09:26;;;;;;;35.53;19.60;;;;;;;9.48;100.00;99639.97;5034021;28;20210;-75
2021/05/14 02:11:51;;;;;;;46.73;20.60;;;;;;;9.38;100.00;99637.06;5034696;28;20168;-74
2021/05/14 02:14:16;;;;;;;34.13;20.33;;;;;;;9.40;100.00;99642.31;5033717;28;20261;-74
2021/05/14 02:16:41;;;;;;;44.60;21.50;;;;;;;9.36;100.00;99633.66;5033665;28;20739;-74
2021/05/14 02:19:07;;;;;;;37.17;21.67;;;;;;;9.42;100.00;99634.19;5032579;28;20176;-74
2021/05/14 02:21:32;;;;;;;40.93;21.53;;;;;;;9.37;100.00;99631.84;5016210;28;20200;-74
2021/05/14 02:23:57;;;;;;;64.20;22.73;;;;;;;9.36;100.00;99639.00;5032187;28;20176;-74
2021/05/14 02:26:23;;;;;;;37.77;21.43;;;;;;;9.46;100.00;99641.88;5032550;28;20168;-74
2021/05/14 02:28:48;;;;;;;48.87;22.23;;;;;;;9.42;100.00;99640.38;5015880;28;20184;-74
2021/05/14 02:31:13;;;;;;;43.50;22.30;;;;;;;9.42;100.00;99645.72;5032047;28;20196;-74
2021/05/14 02:33:38;;;;;;;43.63;22.83;;;;;;;9.41;100.00;99636.00;5032590;28;20176;-74
2021/05/14 02:36:04;;;;;;;55.57;24.17;;;;;;;9.41;100.00;99641.34;5033137;28;20576;-74
2021/05/14 02:38:29;;;;;;;55.53;24.37;;;;;;;9.37;100.00;99635.38;5015737;28;20208;-74
2021/05/14 02:40:55;;;;;;;45.17;22.33;;;;;;;9.36;100.00;99635.47;5031900;28;20724;-74
2021/05/14 02:43:20;;;;;;;64.07;24.40;;;;;;;9.36;100.00;99631.00;5033231;28;20172;-74
2021/05/14 02:45:45;;;;;;;49.00;24.23;;;;;;;9.37;100.00;99627.38;5032130;28;20293;-74
2021/05/14 02:48:11;;;;;;;40.60;22.97;;;;;;;9.44;100.00;99632.28;5033622;28;20639;-74
2021/05/14 02:50:36;;;;;;;48.60;24.57;;;;;;;9.38;100.00;99626.41;5015211;28;20545;-74
2021/05/14 02:53:02;;;;;;;62.50;25.93;;;;;;;9.33;100.00;99631.22;5031831;28;20172;-74
2021/05/14 02:55:28;;;;;;;42.83;23.47;;;;;;;9.39;100.00;99627.28;5032097;28;20246;-74
2021/05/14 02:57:53;;;;;;;46.43;24.13;;;;;;;9.33;100.00;99630.34;5031838;28;20187;-74
2021/05/14 03:00:20;;;;;;;62.17;25.70;;;;;;;9.35;100.00;99623.13;5032951;28;20313;-74
2021/05/14 03:02:45;;;;;;;47.63;23.27;;;;;;;9.38;100.00;99622.91;5015554;28;20648;-72
2021/05/14 03:05:11;;;;;;;44.77;23.43;;;;;;;9.35;100.00;99633.78;5015197;28;20179;-74
2021/05/14 03:07:36;;;;;;;75.37;25.80;;;;;;;9.27;100.00;99636.06;5032069;28;20177;-74
2021/05/14 03:10:03;;;;;;;44.80;24.17;;;;;;;9.33;100.00;99627.69;5031854;28;20196;-74
2021/05/14 03:12:28;;;;;;;50.77;24.17;;;;;;;9.33;100.00;99633.03;5033196;28;20224;-74
2021/05/14 03:14:54;;;;;;;46.13;24.23;;;;;;;9.30;100.00;99642.06;5032770;28;20239;-75
2021/05/14 03:17:19;;;;;;;41.80;22.43;;;;;;;9.38;100.00;99633.56;5035762;28;20180;-74
2021/05/14 03:19:45;;;;;;;67.13;25.40;;;;;;;9.38;100.00;99638.88;5036790;28;20533;-75
2021/05/14 03:22:10;;;;;;;44.03;23.43;;;;;;;9.35;100.00;99639.09;5036405;28;20541;-74
2021/05/14 03:24:35;;;;;;;42.53;23.90;;;;;;;9.38;100.00;99638.88;5036139;28;20211;-76
2021/05/14 03:27:01;;;;;;;62.53;27.40;;;;;;;9.32;100.00;99636.63;5037757;28;20587;-75
2021/05/14 03:29:26;;;;;;;61.40;26.63;;;;;;;9.27;100.00;99638.72;5039212;28;20286;-73
2021/05/14 03:31:51;;;;;;;44.73;24.30;;;;;;;9.40;100.00;99636.97;5043825;28;20180;-73
2021/05/14 03:34:16;;;;;;;46.30;24.83;;;;;;;9.34;100.00;99632.91;5036827;28;20179;-74
2021/05/14 03:36:42;;;;;;;50.43;24.70;;;;;;;9.33;100.00;99646.34;5035759;28;20564;-74
2021/05/14 03:39:10;;;;;;;43.63;24.77;;;;;;;9.34;100.00;99642.72;5035522;28;20208;-75
2021/05/14 03:42:03;;;;;;;45.23;25.13;;;;;;;9.35;100.00;99639.09;5051504;23;20275;-70
2021/05/14 03:44:30;;;;;;;46.00;25.17;;;;;;;9.37;100.00;99639.84;5048407;28;20157;-70
2021/05/14 03:46:55;;;;;;;47.60;24.70;;;;;;;9.31;100.00;99642.91;5018186;28;20662;-70
2021/05/14 03:49:21;;;;;;;37.53;23.63;;;;;;;9.36;100.00;99646.97;5051383;28;20173;-70
2021/05/14 03:51:46;;;;;;;39.70;24.07;;;;;;;9.38;100.00;99647.72;5035806;28;20203;-70
2021/05/14 03:54:11;;;;;;;47.17;25.20;;;;;;;9.39;100.00;99640.59;5035878;28;20176;-69
2021/05/14 03:56:36;;;;;;;37.80;24.30;;;;;;;9.40;100.00;99648.47;5035826;28;20560;-70
2021/05/14 03:59:02;;;;;;;54.03;26.17;;;;;;;9.33;100.00;99646.34;5036368;28;20173;-70
2021/05/14 04:01:28;;;;;;;61.53;26.93;;;;;;;9.31;100.00;99642.91;5051150;28;20198;-70
2021/05/14 04:03:53;;;;;;;51.07;25.67;;;;;;;9.30;100.00;99646.53;5034868;28;20176;-71
2021/05/14 04:06:19;;;;;;;50.17;26.53;;;;;;;9.37;100.00;99642.50;5034333;28;20194;-70
2021/05/14 04:08:44;;;;;;;45.87;26.07;;;;;;;9.40;100.00;99637.81;5035809;28;20184;-71
2021/05/14 04:16:24;;;;;;;55.70;27.33;;;;;;;9.36;100.00;99641.66;5048493;28;20334;-70
2021/05/14 04:18:49;;;;;;;44.23;26.80;;;;;;;9.36;100.00;99644.31;5035306;28;20208;-70
2021/05/14 04:21:15;;;;;;;47.00;26.53;;;;;;;9.46;100.00;99636.56;5050992;28;20655;-69
2021/05/14 04:23:40;;;;;;;46.20;25.53;;;;;;;9.38;100.00;99638.88;5035538;28;20611;-70
2021/05/14 04:26:05;;;;;;;51.17;26.63;;;;;;;9.35;100.00;99639.94;5033959;28;20176;-70
2021/05/14 04:28:31;;;;;;;53.07;27.47;;;;;;;9.43;100.00;99638.56;5034693;28;20181;-70
2021/05/14 04:30:56;;;;;;;44.50;27.50;;;;;;;9.38;100.00;99630.91;5035109;28;20204;-70
2021/05/14 04:33:21;;;;;;;51.87;25.90;;;;;;;9.35;100.00;99639.09;5050568;28;20179;-70
2021/05/14 04:35:48;;;;;;;38.37;24.77;;;;;;;9.38;100.00;99639.75;5050719;28;20195;-70
2021/05/14 04:38:13;;;;;;;49.00;25.90;;;;;;;9.34;100.00;99650.69;5035214;28;20172;-70
2021/05/14 04:40:38;;;;;;;49.00;25.30;;;;;;;9.37;100.00;99647.84;5034853;28;20699;-70
2021/05/14 04:43:03;;;;;;;57.47;24.97;;;;;;;9.33;100.00;99646.34;5034993;28;20222;-71
2021/05/14 04:45:29;;;;;;;41.87;24.43;;;;;;;9.38;100.00;99637.06;5035314;28;20204;-71
2021/05/14 04:47:54;;;;;;;41.33;24.93;;;;;;;9.30;100.00;99651.88;5033739;28;20228;-71
2021/05/14 04:50:20;;;;;;;45.70;25.93;;;;;;;9.35;100.00;99652.41;5050466;28;20230;-70
2021/05/14 04:52:46;;;;;;;43.00;23.90;;;;;;;9.42;100.00;99644.84;5050318;28;20180;-70
2021/05/14 04:55:12;;;;;;;36.20;23.17;;;;;;;9.46;100.00;99647.22;5050106;28;20208;-70
2021/05/14 04:57:37;;;;;;;37.40;22.60;;;;;;;9.40;100.00;99643.16;5034728;28;20199;-70
2021/05/14 05:00:04;;;;;;;40.90;23.23;;;;;;;9.34;100.00;99646.22;5033363;28;20187;-70
2021/05/14 05:02:30;;;;;;;37.13;22.33;;;;;;;9.39;100.00;99640.59;5033397;28;20177;-70
2021/05/14 05:04:55;;;;;;;35.37;22.20;;;;;;;9.40;100.00;99651.13;5035355;28;20192;-71
2021/05/14 05:07:21;;;;;;;35.00;22.27;;;;;;;9.41;100.00;99644.00;5033970;28;20180;-71
2021/05/14 05:09:46;;;;;;;34.90;21.83;;;;;;;9.39;100.00;99645.91;5049860;28;20188;-70
2021/05/14 05:12:12;;;;;;;34.93;20.67;;;;;;;9.38;100.00;99647.72;5034371;28;20176;-70
2021/05/14 05:14:38;;;;;;;36.83;22.23;;;;;;;9.48;100.00;99639.13;5034698;28;20652;-70
2021/05/14 05:17:04;;;;;;;39.47;22.63;;;;;;;9.30;100.00;99642.06;5034749;28;20199;-70
2021/05/14 05:19:29;;;;;;;35.80;21.20;;;;;;;9.50;100.00;99648.72;5034938;28;20241;-71
2021/05/14 05:21:54;;;;;;;29.03;19.47;;;;;;;9.64;100.00;99650.44;5033306;28;20667;-71
2021/05/14 05:24:20;;;;;;;29.73;19.63;;;;;;;9.69;100.00;99643.84;5035214;28;20177;-70
2021/05/14 05:26:45;;;;;;;29.93;19.10;;;;;;;9.68;100.00;99647.47;5050395;28;20199;-71
2021/05/14 05:29:10;;;;;;;25.23;16.97;;;;;;;9.77;100.00;99653.13;5034493;28;20629;-71
2021/05/14 05:31:36;;;;;;;20.20;14.00;;;;;;;9.83;100.00;99656.22;5032765;28;20597;-70
2021/05/14 05:34:01;;;;;;;21.20;14.57;;;;;;;9.70;100.00;99658.03;5049699;28;20172;-70
2021/05/14 05:36:29;;;;;;;24.17;13.43;;;;;;;9.72;100.00;99661.44;5049274;28;20235;-71
2021/05/14 05:38:54;;;;;;;18.43;13.10;;;;;;;9.68;100.00;99655.47;5032718;28;20180;-71
2021/05/14 05:41:19;;;;;;;21.10;13.10;;;;;;;9.81;100.00;99667.97;5032659;28;20223;-70
2021/05/14 05:43:44;;;;;;;18.93;12.77;;;;;;;9.79;100.00;99669.88;5049569;28;20180;-71
2021/05/14 05:46:10;;;;;;;17.87;12.17;;;;;;;9.91;100.00;99666.34;5049197;28;20184;-71
2021/05/14 05:48:36;;;;;;;15.67;10.87;;;;;;;10.02;100.00;99666.47;5049241;28;20292;-71
2021/05/14 05:51:01;;;;;;;16.93;10.27;;;;;;;9.92;100.00;99668.06;5033734;28;20196;-71
2021/05/14 05:53:26;;;;;;;12.40;8.67;;;;;;;9.89;100.00;99676.28;5032834;28;20211;-71
2021/05/14 05:55:52;;;;;;;11.97;8.37;;;;;;;10.06;97.98;99669.81;5034084;28;20640;-70
2021/05/14 05:58:17;;;;;;;11.20;7.97;;;;;;;10.30;97.54;99670.78;5033991;28;20187;-70
2021/05/14 06:00:42;;;;;;;13.27;7.87;;;;;;;10.48;96.33;99684.66;5048783;28;20564;-70
2021/05/14 06:03:10;;;;;;;11.63;7.80;;;;;;;10.46;96.19;99673.25;5049420;28;20176;-70
2021/05/14 06:05:36;;;;;;;10.60;7.63;;;;;;;10.56;94.95;99674.28;5048568;28;20168;-70
2021/05/14 06:08:02;;;;;;;9.53;7.53;;;;;;;10.64;93.89;99679.91;5032550;28;20226;-70
2021/05/14 06:10:27;;;;;;;12.00;8.07;;;;;;;10.67;93.21;99673.50;5049199;28;20687;-71
2021/05/14 06:12:53;;;;;;;11.73;8.80;;;;;;;10.63;93.73;99676.41;5033462;28;20180;-72
2021/05/14 06:15:18;;;;;;;8.97;7.27;;;;;;;10.62;93.74;99676.50;5033363;28;20219;-71
2021/05/14 06:17:44;;;;;;;9.30;7.20;;;;;;;10.60;93.71;99681.09;5032187;28;20595;-72
2021/05/14 06:20:12;;;;;;;13.63;8.43;;;;;;;10.58;93.61;99681.22;5049190;28;20200;-72
2021/05/14 06:22:38;;;;;;;11.30;8.77;;;;;;;10.67;93.25;99678.84;5032130;28;20182;-71
2021/05/14 06:25:04;;;;;;;10.63;8.13;;;;;;;10.34;94.12;99690.94;5032857;28;20176;-72
2021/05/14 06:27:29;;;;;;;8.47;7.10;;;;;;;10.62;93.10;99688.03;5032033;28;20648;-71
2021/05/14 06:29:55;;;;;;;8.13;6.53;;;;;;;10.65;91.30;99676.28;5048465;28;20231;-71
2021/05/14 06:32:20;;;;;;;7.50;5.90;;;;;;;10.55;91.98;99686.78;5033188;28;20230;-71
2021/05/14 06:34:45;;;;;;;8.30;6.13;;;;;;;10.59;91.47;99672.25;5031940;28;20385;-72
2021/05/14 06:37:11;;;;;;;10.50;6.27;;;;;;;10.61;91.15;99690.81;5032047;28;20172;-72
2021/05/14 06:39:36;;;;;;;8.60;7.17;;;;;;;10.58;91.30;99701.72;5015325;28;20176;-71
2021/05/14 06:42:02;;;;;;;9.20;6.53;;;;;;;10.65;91.21;99693.16;5048430;28;20208;-72
2021/05/14 06:44:28;;;;;;;9.07;6.90;;;;;;;10.58;91.66;99696.38;5031892;28;20548;-71
2021/05/14 06:46:54;;;;;;;9.47;6.03;;;;;;;10.51;91.11;99705.78;5033428;28;20164;-71
2021/05/14 06:49:19;;;;;;;6.17;5.20;;;;;;;10.61;90.49;99698.81;5048759;28;20183;-72
2021/05/14 06:51:44;;;;;;;6.97;5.10;;;;;;;10.66;90.09;99702.00;5036147;28;20200;-72
2021/05/14 06:54:10;;;;;;;6.60;4.97;;;;;;;10.70;90.04;99700.81;5038537;28;20183;-72
2021/05/14 06:56:35;;;;;;;8.13;5.37;;;;;;;10.57;90.48;99705.34;5055109;28;20207;-72
2021/05/14 06:59:02;;;;;;;9.57;7.37;;;;;;;10.68;89.66;99705.41;5055499;28;20187;-72
2021/05/14 07:01:27;;;;;;;10.13;8.07;;;;;;;10.64;90.88;99707.47;5038344;28;20215;-72
2021/05/14 07:03:52;;;;;;;11.90;7.43;;;;;;;10.73;89.97;99702.41;5054875;28;20183;-72
2021/05/14 07:06:18;;;;;;;8.83;6.30;;;;;;;10.77;89.54;99691.41;5039333;28;20282;-72
2021/05/14 07:08:46;;;;;;;8.60;6.00;;;;;;;10.83;88.65;99698.16;5055254;28;20226;-72
2021/05/14 07:11:12;;;;;;;7.63;5.90;;;;;;;10.86;88.42;99695.25;5038561;28;20227;-71
2021/05/14 07:13:37;;;;;;;7.93;6.60;;;;;;;10.89;88.73;99690.56;5038954;28;20211;-71
2021/05/14 07:16:02;;;;;;;10.30;7.20;;;;;;;10.99;87.58;99695.22;5038685;28;20232;-71
2021/05/14 07:18:28;;;;;;;10.03;7.30;;;;;;;10.98;88.24;99701.53;5038808;28;20184;-71
2021/05/14 07:20:53;;;;;;;8.60;6.67;;;;;;;10.96;87.96;99705.16;5039272;28;20222;-71
2021/05/14 07:23:18;;;;;;;8.60;5.80;;;;;;;10.94;88.12;99706.22;5039263;28;20172;-71
2021/05/14 07:25:44;;;;;;;9.47;6.50;;;;;;;10.96;87.88;99707.81;5039975;28;20168;-71
2021/05/14 07:28:09;;;;;;;8.27;6.93;;;;;;;10.82;89.69;99710.66;5039250;28;20520;-72
2021/05/14 07:30:35;;;;;;;10.03;8.57;;;;;;;10.76;89.61;99708.38;5037897;28;20196;-73
2021/05/14 07:33:00;;;;;;;9.50;7.43;;;;;;;10.73;90.16;99713.09;5039262;28;20196;-72
2021/05/14 07:35:25;;;;;;;8.70;6.37;;;;;;;10.67;90.26;99711.72;5055079;28;20269;-71
2021/05/14 07:37:51;;;;;;;8.57;7.00;;;;;;;10.53;91.88;99711.84;5054644;28;20641;-70
2021/05/14 07:40:16;;;;;;;10.90;6.60;;;;;;;10.54;93.16;99721.56;5038938;28;20208;-71
2021/05/14 07:42:41;;;;;;;9.70;7.10;;;;;;;10.46;94.01;99714.09;5055154;28;20172;-71
2021/05/14 07:45:07;;;;;;;13.47;8.67;;;;;;;10.53;95.26;99711.84;5039354;28;20184;-73
2021/05/14 07:47:32;;;;;;;7.23;5.93;;;;;;;10.64;95.31;99711.94;5060175;28;20195;-71
2021/05/14 07:49:58;;;;;;;11.50;5.87;;;;;;;10.61;94.78;99709.50;5054970;28;20283;-72
2021/05/14 07:52:23;;;;;;;8.53;5.23;;;;;;;10.57;95.36;99714.19;5055341;28;20180;-72
2021/05/14 07:54:49;;;;;;;6.27;4.13;;;;;;;10.40;95.57;99711.84;5039386;28;20568;-71
2021/05/14 07:57:14;;;;;;;6.67;4.53;;;;;;;10.54;96.08;99719.75;5054695;28;20173;-71
2021/05/14 07:59:39;;;;;;;5.77;4.30;;;;;;;10.68;96.71;99720.59;5039136;28;20176;-71
2021/05/14 08:02:04;;;;;;;4.50;3.80;;;;;;;10.64;96.51;99718.13;5038112;28;20200;-71
2021/05/14 08:04:30;;;;;;;6.33;4.37;;;;;;;10.94;95.42;99719.59;5033886;28;20177;-70
2021/05/14 08:06:55;;;;;;;4.23;3.53;;;;;;;11.02;94.64;99725.22;5051375;28;20653;-70
2021/05/14 08:09:24;;;;;;;5.50;3.57;;;;;;;10.77;94.89;99731.44;5051247;28;20177;-71
2021/05/14 08:11:52;;;;;;;3.90;3.23;;;;;;;10.74;96.02;99729.00;5051936;28;20192;-71
2021/05/14 08:14:19;;;;;;;7.77;5.23;;;;;;;10.72;97.25;99724.72;5017839;28;20666;-71
2021/05/14 08:16:45;;;;;;;6.93;5.57;;;;;;;10.77;95.60;99727.94;5051056;28;20244;-71
2021/05/14 08:19:13;;;;;;;7.97;6.10;;;;;;;10.73;96.71;99724.63;5034260;28;20262;-71
2021/05/14 08:21:43;;;;;;;5.33;3.80;;;;;;;10.88;96.42;99733.38;5034190;28;20690;-71
2021/05/14 08:24:09;;;;;;;3.40;2.53;;;;;;;10.86;94.33;99737.97;5050940;28;20180;-70
2021/05/14 08:26:34;;;;;;;4.70;2.10;;;;;;;10.53;93.94;99722.53;5050868;28;20172;-71
2021/05/14 08:28:59;;;;;;;2.77;2.10;;;;;;;10.55;92.94;99731.28;5017848;28;20176;-72
2021/05/14 08:31:25;;;;;;;4.63;2.20;;;;;;;10.65;92.48;99735.00;5034291;28;20287;-71
2021/05/14 08:33:50;;;;;;;2.80;2.10;;;;;;;10.60;92.26;99729.13;5051286;28;20249;-72
2021/05/14 08:36:15;;;;;;;3.43;2.30;;;;;;;10.65;91.58;99738.50;5033893;28;20224;-70
2021/05/14 08:38:40;;;;;;;5.17;2.50;;;;;;;10.82;91.67;99734.66;5035298;28;20202;-71
2021/05/14 08:41:07;;;;;;;2.50;2.30;;;;;;;10.99;91.20;99737.94;5050618;28;20215;-71
2021/05/14 08:43:32;;;;;;;3.53;2.90;;;;;;;11.12;89.27;99739.59;5035850;28;20533;-72
2021/05/14 08:46:01;;;;;;;7.83;5.17;;;;;;;11.27;89.40;99743.84;5036246;28;20179;-71
2021/05/14 08:48:26;;;;;;;4.90;4.27;;;;;;;11.36;86.81;99742.31;5051476;28;20540;-71
2021/05/14 08:50:52;;;;;;;8.53;4.87;;;;;;;11.37;87.25;99749.38;5050815;28;20197;-70
2021/05/14 08:53:17;;;;;;;4.93;3.80;;;;;;;11.51;86.38;99746.53;5051297;28;20183;-71
2021/05/14 08:55:42;;;;;;;5.50;4.30;;;;;;;11.51;86.16;99748.34;5051582;28;20612;-72
2021/05/14 08:58:08;;;;;;;4.60;3.83;;;;;;;11.52;84.68;99753.59;5034029;28;20191;-72
2021/05/14 09:00:33;;;;;;;5.10;4.10;;;;;;;11.67;84.31;99750.75;5038680;28;20196;-71
2021/05/14 09:02:58;;;;;;;7.63;4.43;;;;;;;11.72;83.92;99761.94;5052896;28;20180;-70
2021/05/14 09:05:26;;;;;;;7.17;5.90;;;;;;;11.62;84.55;99759.09;5051173;28;20179;-70
2021/05/14 09:07:52;;;;;;;9.63;5.83;;;;;;;11.72;84.11;99761.94;5068027;28;20234;-72
2021/05/14 09:10:18;;;;;;;8.40;6.47;;;;;;;11.64;83.97;99750.97;5051529;28;20184;-70
2021/05/14 09:12:44;;;;;;;9.80;7.20;;;;;;;11.61;84.60;99757.41;5058811;28;20187;-72
2021/05/14 09:15:26;;;;;;;8.00;5.97;;;;;;;11.72;83.48;99756.59;5050249;28;20326;-71
2021/05/14 09:18:10;;;;;;;7.40;5.83;;;;;;;11.80;83.04;99757.75;5034727;28;20157;-71
2021/05/14 09:20:38;;;;;;;8.60;5.60;;;;;;;11.87;83.42;99763.50;5035220;28;20548;-71
2021/05/14 09:23:16;;;;;;;14.77;7.10;;;;;;;11.92;82.64;99763.19;5049861;28;20169;-72
2021/05/14 09:25:54;;;;;;;7.57;5.40;;;;;;;12.11;81.25;99761.66;5034289;28;20232;-71
2021/05/14 09:28:26;;;;;;;5.30;4.60;;;;;;;12.27;80.91;99765.84;5034339;28;20194;-71
2021/05/14 09:31:01;;;;;;;7.83;4.53;;;;;;;12.44;79.75;99768.06;5049749;28;20184;-76
2021/05/14 09:33:27;;;;;;;10.37;7.40;;;;;;;12.48;79.93;99786.44;5034403;28;20651;-72
2021/05/14 09:35:59;;;;;;;6.33;4.23;;;;;;;12.42;78.73;99780.72;5033939;28;20199;-72
2021/05/14 09:38:25;;;;;;;4.60;3.10;;;;;;;12.33;79.47;99784.09;5049377;28;20640;-71
2021/05/14 09:40:50;;;;;;;5.37;3.80;;;;;;;12.25;79.86;99783.81;5067300;22;20235;-75
2021/05/14 09:43:15;;;;;;;5.00;4.00;;;;;;;12.17;81.05;99773.69;5013563;28;20181;-75
2021/05/14 09:45:41;;;;;;;6.13;4.60;;;;;;;12.13;81.66;99783.78;5013268;28;20661;-75
2021/05/14 09:48:15;;;;;;;5.50;3.70;;;;;;;12.09;80.58;99779.63;5013818;28;20250;-74
2021/05/14 09:50:41;;;;;;;7.60;4.00;;;;;;;11.93;81.84;99778.25;5015255;28;20204;-75
2021/05/14 09:53:12;;;;;;;6.30;4.93;;;;;;;11.87;81.82;99785.72;4996978;28;20653;-74
2021/05/14 09:55:39;;;;;;;6.13;4.13;;;;;;;11.77;82.46;99782.00;5014292;28;20283;-74
2021/05/14 09:58:18;;;;;;;8.50;5.50;;;;;;;11.70;82.46;99778.09;5013109;28;20649;-75
2021/05/14 10:00:44;;;;;;;6.57;5.30;;;;;;;11.74;82.92;99792.09;5013342;28;20339;-75
2021/05/14 10:03:11;;;;;;;6.87;4.67;;;;;;;11.81;82.78;99783.53;5014547;28;20208;-74
2021/05/14 10:05:37;;;;;;;7.37;5.07;;;;;;;11.75;83.21;99780.44;5014228;28;20577;-74
2021/05/14 10:08:04;;;;;;;6.97;5.87;;;;;;;11.76;82.91;99780.31;4996860;28;20180;-74
2021/05/14 10:10:31;;;;;;;7.30;5.23;;;;;;;11.77;84.28;99786.50;5015386;28;20196;-77
2021/05/14 10:12:56;;;;;;;8.20;5.43;;;;;;;11.75;84.70;99783.09;5014132;28;20181;-75
2021/05/14 10:15:22;;;;;;;9.17;6.33;;;;;;;11.66;84.47;99797.16;5014147;28;20204;-74
2021/05/14 10:17:50;;;;;;;7.90;6.37;;;;;;;11.57;84.16;99785.31;4980620;28;20177;-72
2021/05/14 10:20:18;;;;;;;8.47;6.20;;;;;;;11.59;84.42;99794.94;4996556;28;20180;-74
2021/05/14 10:22:45;;;;;;;9.03;5.83;;;;;;;11.58;85.15;99792.38;5012714;28;20173;-74
2021/05/14 10:25:12;;;;;;;10.90;6.80;;;;;;;11.68;84.43;99792.53;4996045;28;20165;-74
2021/05/14 10:27:44;;;;;;;8.97;6.10;;;;;;;11.72;83.53;99805.56;5014156;28;20248;-74
2021/05/14 10:30:09;;;;;;;12.50;7.00;;;;;;;11.68;83.57;99795.22;5012572;28;20183;-75
2021/05/14 10:32:43;;;;;;;8.97;6.57;;;;;;;11.67;84.14;99793.50;5014085;28;20196;-73
2021/05/14 10:35:11;;;;;;;9.10;6.87;;;;;;;11.74;83.67;99797.44;5013114;28;20212;-74
2021/05/14 10:37:49;;;;;;;9.77;6.57;;;;;;;11.69;84.55;99792.44;4996663;28;20568;-73
2021/05/14 10:40:33;;;;;;;8.10;6.03;;;;;;;11.76;83.67;99792.81;5012518;28;20164;-73
2021/05/14 10:43:03;;;;;;;9.43;6.87;;;;;;;11.79;84.03;99798.81;5012736;28;20188;-74
2021/05/14 10:45:43;;;;;;;10.53;6.23;;;;;;;11.66;84.25;99789.13;5013094;28;20633;-74
2021/05/14 10:48:18;;;;;;;8.07;6.67;;;;;;;11.75;83.98;99797.31;4996291;28;20649;-73
2021/05/14 10:51:00;;;;;;;9.17;6.53;;;;;;;11.73;83.61;99804.59;5012967;28;20252;-73
2021/05/14 10:53:33;;;;;;;8.73;5.83;;;;;;;11.62;83.89;99798.34;4996328;28;20177;-74
2021/05/14 10:56:10;;;;;;;7.10;6.00;;;;;;;11.71;83.48;99800.34;5013898;28;20750;-75
2021/05/14 10:58:44;;;;;;;7.97;6.00;;;;;;;11.68;83.66;99803.22;5014182;28;20267;-73
2021/05/14 11:01:28;;;;;;;8.57;6.37;;;;;;;11.73;83.05;99804.59;5013477;28;20185;-74
2021/05/14 11:03:53;;;;;;;9.03;5.97;;;;;;;11.79;83.52;99793.47;5012683;28;20183;-74
2021/05/14 11:06:19;;;;;;;13.93;6.33;;;;;;;11.83;83.48;99805.66;5013760;28;20306;-75
2021/05/14 11:08:57;;;;;;;8.57;6.47;;;;;;;11.85;83.81;99793.03;5012784;28;20169;-71
2021/05/14 11:11:22;;;;;;;10.47;6.73;;;;;;;11.88;82.80;99806.16;5012109;28;20193;-73
2021/05/14 11:13:52;;;;;;;8.60;6.57;;;;;;;11.83;83.68;99797.63;5012722;28;20180;-74
2021/05/14 11:16:33;;;;;;;9.43;7.23;;;;;;;11.54;84.46;99807.78;5012379;28;20688;-74
2021/05/14 11:19:09;;;;;;;13.03;8.30;;;;;;;11.66;84.21;99810.50;5011876;28;20176;-74
2021/05/14 11:21:56;;;;;;;12.07;7.90;;;;;;;11.57;84.45;99809.38;5012107;28;20193;-73
2021/05/14 11:24:31;;;;;;;14.40;8.10;;;;;;;11.29;85.63;99815.84;5012569;28;20207;-74
2021/05/14 11:27:08;;;;;;;14.50;8.93;;;;;;;11.19;86.80;99810.34;5012307;28;20638;-76